Gulf Bridge — A8JM5 — position and weather

sailwx.info

Track history (hours):
 
Tides and Currents Weather Stations Pressure Air Temp Water Temp Dewpoint Dewpoint Depression Visibility Wind Speed Wind Dir Waves Ship Positions

Gulf Bridge

Last reported at 2015-Jan-25 02:20 UTC. Time now 2015-Jan-26 06:27 UTC.
Position S 36°50' E 176°07'.

Length 213 m; beam 32.2 m; draft 11.5 m.

Type: Cargo ship. MMSI: 636091115.

Date/timePositionNaut miles runAvg speedWind from/ knotsBaromVisibWave heightAir tempDewpointWater temp
2015-Jan-25 02:20S 36°50' E 176°07'2311.5
2015-Jan-25 00:20S 36°31' E 175°51'1212.3
2015-Jan-24 23:23S 36°28' E 175°38'1212.0
2015-Jan-24 22:25S 36°24' E 175°24'10 9.4
2015-Jan-24 21:22S 36°28' E 175°12'8 9.8
2015-Jan-24 20:33S 36°33' E 175°04'10 9.9
2015-Jan-24 19:33S 36°39' E 174°55'10 9.8
2015-Jan-24 18:33S 36°48' E 174°49'3 3.2
2015-Jan-24 17:33S 36°51' E 174°47'0 0.0
2015-Jan-24 16:32S 36°51' E 174°47'0 0.0
2015-Jan-24 15:32S 36°51' E 174°47'0 0.0
2015-Jan-24 14:32S 36°51' E 174°47'0 0.0
2015-Jan-24 13:32S 36°51' E 174°47'0 0.0
2015-Jan-24 12:32S 36°51' E 174°47'0 0.0
2015-Jan-24 11:32S 36°51' E 174°47'0 0.0
2015-Jan-24 10:32S 36°51' E 174°47'0 0.0
2015-Jan-24 09:30S 36°51' E 174°47'0 0.0
2015-Jan-24 08:32S 36°51' E 174°47'0 0.0
2015-Jan-24 07:32S 36°51' E 174°47'0 0.0
2015-Jan-24 06:32S 36°51' E 174°47'0 0.0
2015-Jan-24 05:32S 36°51' E 174°47'0 0.0
2015-Jan-24 04:33S 36°50' E 174°47'6 6.4
2015-Jan-24 03:34S 36°45' E 174°50'10 9.6
2015-Jan-24 02:34S 36°37' E 174°57'1211.8
2015-Jan-24 01:33S 36°25' E 174°59'1211.8
2015-Jan-24 00:34S 36°13' E 174°58'31 9.5
2015-Jan-23 21:17S 35°42' E 174°53'  
2015-Jan-18 07:10S 39°08' E 147°30'1017.0
2015-Jan-18 06:34S 39°07' E 147°16'1716.7
2015-Jan-18 05:33S 39°10' E 146°55'1717.4
2015-Jan-18 04:33S 39°16' E 146°34'1717.0
2015-Jan-18 03:34S 39°15' E 146°12'1717.2
2015-Jan-18 02:33S 39°05' E 145°53'1817.0
2015-Jan-18 01:30S 38°56' E 145°34'3917.0
2015-Jan-17 23:11S 38°34' E 144°52'1416.2
2015-Jan-17 22:19S 38°24' E 144°40'7 6.7
2015-Jan-17 21:12S 38°18' E 144°46'911.9
2015-Jan-17 20:29S 38°14' E 144°55'119 3.0
2015-Jan-16 05:33S 38°57' E 147°16'1716.5
2015-Jan-16 04:33S 38°52' E 147°37'3215.6
2015-Jan-16 02:31S 38°42' E 148°15'1515.9
2015-Jan-16 01:33S 38°35' E 148°33'1716.0
2015-Jan-16 00:30S 38°26' E 148°51'1616.4
2015-Jan-15 23:30S 38°15' E 149°07'3015.4
2015-Jan-15 21:33S 37°58' E 149°38'1313.5
2015-Jan-15 20:33S 37°49' E 149°51'1312.9
2015-Jan-15 19:33S 37°39' E 150°01'1312.7
2015-Jan-15 18:32S 37°28' E 150°08'1313.6
2015-Jan-15 17:34S 37°15' E 150°13'  
Track history (hours):
 
Tides and Currents Weather Stations Pressure Air Temp Water Temp Dewpoint Dewpoint Depression Visibility Wind Speed Wind Dir Waves Ship Positions

Gulf Bridge

Last reported at 2015-Jan-25 02:20 UTC. Time now 2015-Jan-26 06:27 UTC.
Position S 36°50' E 176°07'.

Length 213 m; beam 32.2 m; draft 11.5 m.

Type: Cargo ship. MMSI: 636091115.

Date/timePositionNaut miles runAvg speedWind from/ knotsBaromVisibWave heightAir tempDewpointWater temp
2015-Jan-25 02:20S 36°50' E 176°07'2311.5
2015-Jan-25 00:20S 36°31' E 175°51'1212.3
2015-Jan-24 23:23S 36°28' E 175°38'1212.0
2015-Jan-24 22:25S 36°24' E 175°24'10 9.4
2015-Jan-24 21:22S 36°28' E 175°12'8 9.8
2015-Jan-24 20:33S 36°33' E 175°04'10 9.9
2015-Jan-24 19:33S 36°39' E 174°55'10 9.8
2015-Jan-24 18:33S 36°48' E 174°49'3 3.2
2015-Jan-24 17:33S 36°51' E 174°47'0 0.0
2015-Jan-24 16:32S 36°51' E 174°47'0 0.0
2015-Jan-24 15:32S 36°51' E 174°47'0 0.0
2015-Jan-24 14:32S 36°51' E 174°47'0 0.0
2015-Jan-24 13:32S 36°51' E 174°47'0 0.0
2015-Jan-24 12:32S 36°51' E 174°47'0 0.0
2015-Jan-24 11:32S 36°51' E 174°47'0 0.0
2015-Jan-24 10:32S 36°51' E 174°47'0 0.0
2015-Jan-24 09:30S 36°51' E 174°47'0 0.0
2015-Jan-24 08:32S 36°51' E 174°47'0 0.0
2015-Jan-24 07:32S 36°51' E 174°47'0 0.0
2015-Jan-24 06:32S 36°51' E 174°47'0 0.0
2015-Jan-24 05:32S 36°51' E 174°47'0 0.0
2015-Jan-24 04:33S 36°50' E 174°47'6 6.4
2015-Jan-24 03:34S 36°45' E 174°50'10 9.6
2015-Jan-24 02:34S 36°37' E 174°57'1211.8
2015-Jan-24 01:33S 36°25' E 174°59'1211.8
2015-Jan-24 00:34S 36°13' E 174°58'31 9.5
2015-Jan-23 21:17S 35°42' E 174°53'  
2015-Jan-18 07:10S 39°08' E 147°30'1017.0
2015-Jan-18 06:34S 39°07' E 147°16'1716.7
2015-Jan-18 05:33S 39°10' E 146°55'1717.4
2015-Jan-18 04:33S 39°16' E 146°34'1717.0
2015-Jan-18 03:34S 39°15' E 146°12'1717.2
2015-Jan-18 02:33S 39°05' E 145°53'1817.0
2015-Jan-18 01:30S 38°56' E 145°34'3917.0
2015-Jan-17 23:11S 38°34' E 144°52'1416.2
2015-Jan-17 22:19S 38°24' E 144°40'7 6.7
2015-Jan-17 21:12S 38°18' E 144°46'911.9
2015-Jan-17 20:29S 38°14' E 144°55'119 3.0
2015-Jan-16 05:33S 38°57' E 147°16'1716.5
2015-Jan-16 04:33S 38°52' E 147°37'3215.6
2015-Jan-16 02:31S 38°42' E 148°15'1515.9
2015-Jan-16 01:33S 38°35' E 148°33'1716.0
2015-Jan-16 00:30S 38°26' E 148°51'1616.4
2015-Jan-15 23:30S 38°15' E 149°07'3015.4
2015-Jan-15 21:33S 37°58' E 149°38'1313.5
2015-Jan-15 20:33S 37°49' E 149°51'1312.9
2015-Jan-15 19:33S 37°39' E 150°01'1312.7
2015-Jan-15 18:32S 37°28' E 150°08'1313.6
2015-Jan-15 17:34S 37°15' E 150°13'  

Dump ship's entire track history